sensor_id;sensor_type;location;lat;lon;timestamp;temperature;humidity
666;DHT22;315;48.738;9.126;2024-01-06T00:01:36;5.70;99.90
666;DHT22;315;48.738;9.126;2024-01-06T00:04:01;5.70;99.90
666;DHT22;315;48.738;9.126;2024-01-06T00:06:27;5.70;99.90
666;DHT22;315;48.738;9.126;2024-01-06T00:08:52;5.80;99.90
666;DHT22;315;48.738;9.126;2024-01-06T00:11:20;5.70;99.90
666;DHT22;315;48.738;9.126;2024-01-06T00:13:46;5.70;99.90
666;DHT22;315;48.738;9.126;2024-01-06T00:16:12;5.80;99.90
666;DHT22;315;48.738;9.126;2024-01-06T00:18:38;5.80;99.90
666;DHT22;315;48.738;9.126;2024-01-06T00:21:04;5.70;99.90
666;DHT22;315;48.738;9.126;2024-01-06T00:23:29;5.80;99.90
666;DHT22;315;48.738;9.126;2024-01-06T00:25:55;5.80;99.90
666;DHT22;315;48.738;9.126;2024-01-06T00:28:21;5.80;99.90
666;DHT22;315;48.738;9.126;2024-01-06T00:30:46;5.80;99.90
666;DHT22;315;48.738;9.126;2024-01-06T00:33:12;5.80;99.90
666;DHT22;315;48.738;9.126;2024-01-06T00:35:38;5.80;99.90
666;DHT22;315;48.738;9.126;2024-01-06T00:38:03;5.80;99.90
666;DHT22;315;48.738;9.126;2024-01-06T00:40:29;5.90;99.90
666;DHT22;315;48.738;9.126;2024-01-06T00:42:54;5.80;99.90
666;DHT22;315;48.738;9.126;2024-01-06T00:45:20;5.80;99.90
666;DHT22;315;48.738;9.126;2024-01-06T00:47:46;5.80;99.90
666;DHT22;315;48.738;9.126;2024-01-06T00:50:11;5.80;99.90
666;DHT22;315;48.738;9.126;2024-01-06T00:52:37;5.80;99.90
666;DHT22;315;48.738;9.126;2024-01-06T00:55:03;5.80;99.90
666;DHT22;315;48.738;9.126;2024-01-06T00:57:28;5.80;99.90
666;DHT22;315;48.738;9.126;2024-01-06T00:59:54;5.80;99.90
666;DHT22;315;48.738;9.126;2024-01-06T01:02:19;5.80;99.90
666;DHT22;315;48.738;9.126;2024-01-06T01:04:45;5.80;99.90
666;DHT22;315;48.738;9.126;2024-01-06T01:07:10;5.80;99.90
666;DHT22;315;48.738;9.126;2024-01-06T01:09:37;5.80;99.90
666;DHT22;315;48.738;9.126;2024-01-06T01:12:02;5.80;99.90
666;DHT22;315;48.738;9.126;2024-01-06T01:14:28;5.80;99.90
666;DHT22;315;48.738;9.126;2024-01-06T01:16:53;5.80;99.90
666;DHT22;315;48.738;9.126;2024-01-06T01:19:19;5.80;99.90
666;DHT22;315;48.738;9.126;2024-01-06T01:21:44;5.80;99.90
666;DHT22;315;48.738;9.126;2024-01-06T01:24:10;5.80;99.90
666;DHT22;315;48.738;9.126;2024-01-06T01:26:35;5.80;99.90
666;DHT22;315;48.738;9.126;2024-01-06T01:29:01;5.80;99.90
666;DHT22;315;48.738;9.126;2024-01-06T01:31:27;5.80;99.90
666;DHT22;315;48.738;9.126;2024-01-06T01:33:52;5.80;99.90
666;DHT22;315;48.738;9.126;2024-01-06T01:36:18;5.70;99.90
666;DHT22;315;48.738;9.126;2024-01-06T01:38:43;5.70;99.90
666;DHT22;315;48.738;9.126;2024-01-06T01:41:09;5.70;99.90
666;DHT22;315;48.738;9.126;2024-01-06T01:43:34;5.60;99.90
666;DHT22;315;48.738;9.126;2024-01-06T01:46:00;5.60;99.90
666;DHT22;315;48.738;9.126;2024-01-06T01:48:26;5.60;99.90
666;DHT22;315;48.738;9.126;2024-01-06T01:50:53;5.60;99.90
666;DHT22;315;48.738;9.126;2024-01-06T01:53:19;5.60;99.90
666;DHT22;315;48.738;9.126;2024-01-06T01:55:46;5.60;99.90
666;DHT22;315;48.738;9.126;2024-01-06T01:58:12;5.60;99.90
666;DHT22;315;48.738;9.126;2024-01-06T02:00:39;5.60;99.90
666;DHT22;315;48.738;9.126;2024-01-06T02:03:05;5.50;99.90
666;DHT22;315;48.738;9.126;2024-01-06T02:05:31;5.60;99.90
666;DHT22;315;48.738;9.126;2024-01-06T02:07:56;5.50;99.90
666;DHT22;315;48.738;9.126;2024-01-06T02:10:22;5.50;99.90
666;DHT22;315;48.738;9.126;2024-01-06T02:12:48;5.50;99.90
666;DHT22;315;48.738;9.126;2024-01-06T02:15:14;5.50;99.90
666;DHT22;315;48.738;9.126;2024-01-06T02:17:40;5.50;99.90
666;DHT22;315;48.738;9.126;2024-01-06T02:20:07;5.50;99.90
666;DHT22;315;48.738;9.126;2024-01-06T02:22:35;5.50;99.90
666;DHT22;315;48.738;9.126;2024-01-06T02:25:01;5.50;99.90
666;DHT22;315;48.738;9.126;2024-01-06T02:27:27;5.50;99.90
666;DHT22;315;48.738;9.126;2024-01-06T02:29:53;5.50;99.90
666;DHT22;315;48.738;9.126;2024-01-06T02:32:18;5.50;99.90
666;DHT22;315;48.738;9.126;2024-01-06T02:34:44;5.50;99.90
666;DHT22;315;48.738;9.126;2024-01-06T02:37:09;5.50;99.90
666;DHT22;315;48.738;9.126;2024-01-06T02:39:35;5.50;99.90
666;DHT22;315;48.738;9.126;2024-01-06T02:42:00;5.50;99.90
666;DHT22;315;48.738;9.126;2024-01-06T02:44:26;5.50;99.90
666;DHT22;315;48.738;9.126;2024-01-06T02:46:51;5.50;99.90
666;DHT22;315;48.738;9.126;2024-01-06T02:49:17;5.50;99.90
666;DHT22;315;48.738;9.126;2024-01-06T02:51:43;5.40;99.90
666;DHT22;315;48.738;9.126;2024-01-06T02:54:08;5.40;99.90
666;DHT22;315;48.738;9.126;2024-01-06T02:56:34;5.40;99.90
666;DHT22;315;48.738;9.126;2024-01-06T02:58:59;5.30;99.90
666;DHT22;315;48.738;9.126;2024-01-06T03:01:24;5.30;99.90
666;DHT22;315;48.738;9.126;2024-01-06T03:03:50;5.30;99.90
666;DHT22;315;48.738;9.126;2024-01-06T03:06:16;5.30;99.90
666;DHT22;315;48.738;9.126;2024-01-06T03:08:41;5.30;99.90
666;DHT22;315;48.738;9.126;2024-01-06T03:11:08;5.30;99.90
666;DHT22;315;48.738;9.126;2024-01-06T03:13:33;5.40;99.90
666;DHT22;315;48.738;9.126;2024-01-06T03:16:03;5.30;99.90
666;DHT22;315;48.738;9.126;2024-01-06T03:18:30;5.30;99.90
666;DHT22;315;48.738;9.126;2024-01-06T03:20:55;5.30;99.90
666;DHT22;315;48.738;9.126;2024-01-06T03:23:20;5.30;99.90
666;DHT22;315;48.738;9.126;2024-01-06T03:25:46;5.30;99.90
666;DHT22;315;48.738;9.126;2024-01-06T03:28:12;5.30;99.90
666;DHT22;315;48.738;9.126;2024-01-06T03:30:37;5.30;99.90
666;DHT22;315;48.738;9.126;2024-01-06T03:33:03;5.30;99.90
666;DHT22;315;48.738;9.126;2024-01-06T03:35:28;5.40;99.90
666;DHT22;315;48.738;9.126;2024-01-06T03:37:54;5.40;99.90
666;DHT22;315;48.738;9.126;2024-01-06T03:40:20;5.50;99.90
666;DHT22;315;48.738;9.126;2024-01-06T03:42:46;5.40;99.90
666;DHT22;315;48.738;9.126;2024-01-06T03:45:11;5.50;99.90
666;DHT22;315;48.738;9.126;2024-01-06T03:47:37;5.50;99.90
666;DHT22;315;48.738;9.126;2024-01-06T03:50:02;5.50;99.90
666;DHT22;315;48.738;9.126;2024-01-06T03:52:28;5.50;99.90
666;DHT22;315;48.738;9.126;2024-01-06T03:54:53;5.50;99.90
666;DHT22;315;48.738;9.126;2024-01-06T03:57:19;5.50;99.90
666;DHT22;315;48.738;9.126;2024-01-06T03:59:44;5.40;99.90
666;DHT22;315;48.738;9.126;2024-01-06T04:02:10;5.40;99.90
666;DHT22;315;48.738;9.126;2024-01-06T04:04:35;5.40;99.90
666;DHT22;315;48.738;9.126;2024-01-06T04:07:01;5.40;99.90
666;DHT22;315;48.738;9.126;2024-01-06T04:09:27;5.40;99.90
666;DHT22;315;48.738;9.126;2024-01-06T04:11:52;5.50;99.90
666;DHT22;315;48.738;9.126;2024-01-06T04:14:18;5.50;99.90
666;DHT22;315;48.738;9.126;2024-01-06T04:16:43;5.50;99.90
666;DHT22;315;48.738;9.126;2024-01-06T04:19:09;5.50;99.90
666;DHT22;315;48.738;9.126;2024-01-06T04:21:36;5.40;99.90
666;DHT22;315;48.738;9.126;2024-01-06T04:24:02;5.40;99.90
666;DHT22;315;48.738;9.126;2024-01-06T04:26:27;5.40;99.90
666;DHT22;315;48.738;9.126;2024-01-06T04:28:53;5.40;99.90
666;DHT22;315;48.738;9.126;2024-01-06T04:31:18;5.30;99.90
666;DHT22;315;48.738;9.126;2024-01-06T04:33:43;5.30;99.90
666;DHT22;315;48.738;9.126;2024-01-06T04:36:09;5.30;99.90
666;DHT22;315;48.738;9.126;2024-01-06T04:38:34;5.30;99.90
666;DHT22;315;48.738;9.126;2024-01-06T04:41:00;5.30;99.90
666;DHT22;315;48.738;9.126;2024-01-06T04:43:26;5.30;99.90
666;DHT22;315;48.738;9.126;2024-01-06T04:45:51;5.30;99.90
666;DHT22;315;48.738;9.126;2024-01-06T04:48:17;5.20;99.90
666;DHT22;315;48.738;9.126;2024-01-06T04:50:42;5.20;99.90
666;DHT22;315;48.738;9.126;2024-01-06T04:53:08;5.10;99.90
666;DHT22;315;48.738;9.126;2024-01-06T04:55:33;5.10;99.90
666;DHT22;315;48.738;9.126;2024-01-06T04:57:59;5.00;99.90
666;DHT22;315;48.738;9.126;2024-01-06T05:00:24;5.00;99.90
666;DHT22;315;48.738;9.126;2024-01-06T05:02:51;4.90;99.90
666;DHT22;315;48.738;9.126;2024-01-06T05:05:16;5.00;99.90
666;DHT22;315;48.738;9.126;2024-01-06T05:07:42;5.00;99.90
666;DHT22;315;48.738;9.126;2024-01-06T05:10:08;5.00;99.90
666;DHT22;315;48.738;9.126;2024-01-06T05:12:33;5.00;99.90
666;DHT22;315;48.738;9.126;2024-01-06T05:14:59;5.00;99.90
666;DHT22;315;48.738;9.126;2024-01-06T05:17:24;5.00;99.90
666;DHT22;315;48.738;9.126;2024-01-06T05:19:50;5.00;99.90
666;DHT22;315;48.738;9.126;2024-01-06T05:22:15;5.00;99.90
666;DHT22;315;48.738;9.126;2024-01-06T05:24:41;5.00;99.90
666;DHT22;315;48.738;9.126;2024-01-06T05:27:06;5.00;99.90
666;DHT22;315;48.738;9.126;2024-01-06T05:29:32;5.10;99.90
666;DHT22;315;48.738;9.126;2024-01-06T05:31:57;5.20;99.90
666;DHT22;315;48.738;9.126;2024-01-06T05:34:23;5.20;99.90
666;DHT22;315;48.738;9.126;2024-01-06T05:36:48;5.20;99.90
666;DHT22;315;48.738;9.126;2024-01-06T05:39:14;5.30;99.90
666;DHT22;315;48.738;9.126;2024-01-06T05:41:40;5.30;99.90
666;DHT22;315;48.738;9.126;2024-01-06T05:44:06;5.40;99.90
666;DHT22;315;48.738;9.126;2024-01-06T05:46:31;5.40;99.90
666;DHT22;315;48.738;9.126;2024-01-06T05:48:57;5.40;99.90
666;DHT22;315;48.738;9.126;2024-01-06T05:51:23;5.30;99.90
666;DHT22;315;48.738;9.126;2024-01-06T05:53:49;5.30;99.90
666;DHT22;315;48.738;9.126;2024-01-06T05:56:25;5.30;99.90
666;DHT22;315;48.738;9.126;2024-01-06T05:58:51;5.30;99.90
666;DHT22;315;48.738;9.126;2024-01-06T06:01:17;5.20;99.90
666;DHT22;315;48.738;9.126;2024-01-06T06:03:43;5.20;99.90
666;DHT22;315;48.738;9.126;2024-01-06T06:06:09;5.30;99.90
666;DHT22;315;48.738;9.126;2024-01-06T06:08:34;5.40;99.90
666;DHT22;315;48.738;9.126;2024-01-06T06:11:00;5.40;99.90
666;DHT22;315;48.738;9.126;2024-01-06T06:13:36;5.40;99.90
666;DHT22;315;48.738;9.126;2024-01-06T06:16:02;5.40;99.90
666;DHT22;315;48.738;9.126;2024-01-06T06:18:28;5.40;99.90
666;DHT22;315;48.738;9.126;2024-01-06T06:20:53;5.50;99.90
666;DHT22;315;48.738;9.126;2024-01-06T06:23:19;5.60;99.90
666;DHT22;315;48.738;9.126;2024-01-06T06:25:44;5.60;99.90
666;DHT22;315;48.738;9.126;2024-01-06T06:28:09;5.50;99.90
666;DHT22;315;48.738;9.126;2024-01-06T06:30:35;5.60;99.90
666;DHT22;315;48.738;9.126;2024-01-06T06:33:00;5.60;99.90
666;DHT22;315;48.738;9.126;2024-01-06T06:35:26;5.50;99.90
666;DHT22;315;48.738;9.126;2024-01-06T06:37:51;5.50;99.90
666;DHT22;315;48.738;9.126;2024-01-06T06:40:17;5.40;99.90
666;DHT22;315;48.738;9.126;2024-01-06T06:42:43;5.40;99.90
666;DHT22;315;48.738;9.126;2024-01-06T06:45:08;5.50;99.90
666;DHT22;315;48.738;9.126;2024-01-06T06:47:37;5.50;99.90
666;DHT22;315;48.738;9.126;2024-01-06T06:50:02;5.50;99.90
666;DHT22;315;48.738;9.126;2024-01-06T06:52:28;5.50;99.90
666;DHT22;315;48.738;9.126;2024-01-06T06:54:53;5.50;99.90
666;DHT22;315;48.738;9.126;2024-01-06T06:57:19;5.50;99.90
666;DHT22;315;48.738;9.126;2024-01-06T06:59:45;5.50;99.90
666;DHT22;315;48.738;9.126;2024-01-06T07:02:10;5.40;99.90
666;DHT22;315;48.738;9.126;2024-01-06T07:04:36;5.40;99.90
666;DHT22;315;48.738;9.126;2024-01-06T07:07:01;5.50;99.90
666;DHT22;315;48.738;9.126;2024-01-06T07:09:27;5.60;99.90
666;DHT22;315;48.738;9.126;2024-01-06T07:11:52;5.60;99.90
666;DHT22;315;48.738;9.126;2024-01-06T07:14:18;5.60;99.90
666;DHT22;315;48.738;9.126;2024-01-06T07:16:43;5.60;99.90
666;DHT22;315;48.738;9.126;2024-01-06T07:19:09;5.60;99.90
666;DHT22;315;48.738;9.126;2024-01-06T07:21:34;5.60;99.90
666;DHT22;315;48.738;9.126;2024-01-06T07:24:00;5.60;99.90
666;DHT22;315;48.738;9.126;2024-01-06T07:26:26;5.60;99.90
666;DHT22;315;48.738;9.126;2024-01-06T07:28:52;5.60;99.90
666;DHT22;315;48.738;9.126;2024-01-06T07:31:18;5.60;99.90
666;DHT22;315;48.738;9.126;2024-01-06T07:33:43;5.60;99.90
666;DHT22;315;48.738;9.126;2024-01-06T07:36:09;5.50;99.90
666;DHT22;315;48.738;9.126;2024-01-06T07:38:34;5.40;99.90
666;DHT22;315;48.738;9.126;2024-01-06T07:41:00;5.40;99.90
666;DHT22;315;48.738;9.126;2024-01-06T07:43:25;5.40;99.90
666;DHT22;315;48.738;9.126;2024-01-06T07:45:51;5.40;99.90
666;DHT22;315;48.738;9.126;2024-01-06T07:48:17;5.40;99.90
666;DHT22;315;48.738;9.126;2024-01-06T07:50:42;5.40;99.90
666;DHT22;315;48.738;9.126;2024-01-06T07:53:08;5.40;99.90
666;DHT22;315;48.738;9.126;2024-01-06T07:55:33;5.50;99.90
666;DHT22;315;48.738;9.126;2024-01-06T07:57:58;5.50;99.90
666;DHT22;315;48.738;9.126;2024-01-06T08:00:24;5.60;99.90
666;DHT22;315;48.738;9.126;2024-01-06T08:02:50;5.60;99.90
666;DHT22;315;48.738;9.126;2024-01-06T08:05:16;5.70;99.90
666;DHT22;315;48.738;9.126;2024-01-06T08:07:42;5.70;99.90
666;DHT22;315;48.738;9.126;2024-01-06T08:10:07;5.80;99.90
666;DHT22;315;48.738;9.126;2024-01-06T08:12:34;5.80;99.90
666;DHT22;315;48.738;9.126;2024-01-06T08:15:00;5.90;99.90
666;DHT22;315;48.738;9.126;2024-01-06T08:17:25;5.90;99.90
666;DHT22;315;48.738;9.126;2024-01-06T08:19:51;5.80;99.90
666;DHT22;315;48.738;9.126;2024-01-06T08:22:16;5.80;99.90
666;DHT22;315;48.738;9.126;2024-01-06T08:24:42;5.90;99.90
666;DHT22;315;48.738;9.126;2024-01-06T08:27:07;5.90;99.90
666;DHT22;315;48.738;9.126;2024-01-06T08:29:33;5.90;99.90
666;DHT22;315;48.738;9.126;2024-01-06T08:31:59;6.00;99.90
666;DHT22;315;48.738;9.126;2024-01-06T08:34:25;6.10;99.90
666;DHT22;315;48.738;9.126;2024-01-06T08:36:50;6.10;99.90
666;DHT22;315;48.738;9.126;2024-01-06T08:39:16;6.10;99.90
666;DHT22;315;48.738;9.126;2024-01-06T08:41:42;6.20;99.90
666;DHT22;315;48.738;9.126;2024-01-06T08:44:07;6.10;99.90
666;DHT22;315;48.738;9.126;2024-01-06T08:46:33;6.20;99.90
666;DHT22;315;48.738;9.126;2024-01-06T08:48:58;6.30;99.90
666;DHT22;315;48.738;9.126;2024-01-06T08:51:25;6.40;99.90
666;DHT22;315;48.738;9.126;2024-01-06T08:53:51;6.40;99.90
666;DHT22;315;48.738;9.126;2024-01-06T08:56:17;6.50;99.90
666;DHT22;315;48.738;9.126;2024-01-06T08:58:43;6.50;99.90
666;DHT22;315;48.738;9.126;2024-01-06T09:01:09;6.50;99.90
666;DHT22;315;48.738;9.126;2024-01-06T09:03:34;6.60;99.90
666;DHT22;315;48.738;9.126;2024-01-06T09:06:00;6.50;99.90
666;DHT22;315;48.738;9.126;2024-01-06T09:08:25;6.50;99.90
666;DHT22;315;48.738;9.126;2024-01-06T09:10:51;6.50;99.90
666;DHT22;315;48.738;9.126;2024-01-06T09:13:17;6.50;99.90
666;DHT22;315;48.738;9.126;2024-01-06T09:15:43;6.50;99.90
666;DHT22;315;48.738;9.126;2024-01-06T09:18:09;6.40;99.90
666;DHT22;315;48.738;9.126;2024-01-06T09:20:35;6.40;99.90
666;DHT22;315;48.738;9.126;2024-01-06T09:23:00;6.50;99.90
666;DHT22;315;48.738;9.126;2024-01-06T09:25:26;6.60;99.90
666;DHT22;315;48.738;9.126;2024-01-06T09:27:51;6.60;99.90
666;DHT22;315;48.738;9.126;2024-01-06T09:30:18;6.70;99.90
666;DHT22;315;48.738;9.126;2024-01-06T09:32:44;6.70;99.90
666;DHT22;315;48.738;9.126;2024-01-06T09:35:09;6.90;99.90
666;DHT22;315;48.738;9.126;2024-01-06T09:37:35;7.00;99.90
666;DHT22;315;48.738;9.126;2024-01-06T09:40:00;6.90;99.90
666;DHT22;315;48.738;9.126;2024-01-06T09:42:26;6.90;99.90
666;DHT22;315;48.738;9.126;2024-01-06T09:44:51;6.60;99.90
666;DHT22;315;48.738;9.126;2024-01-06T09:47:18;6.60;99.90
666;DHT22;315;48.738;9.126;2024-01-06T09:49:49;6.50;99.90
666;DHT22;315;48.738;9.126;2024-01-06T09:52:15;6.70;99.90
666;DHT22;315;48.738;9.126;2024-01-06T09:54:53;6.80;99.90
666;DHT22;315;48.738;9.126;2024-01-06T09:57:20;7.10;99.90
666;DHT22;315;48.738;9.126;2024-01-06T09:59:46;7.30;99.90
666;DHT22;315;48.738;9.126;2024-01-06T10:02:16;7.20;99.90
666;DHT22;315;48.738;9.126;2024-01-06T10:04:43;7.40;99.90
666;DHT22;315;48.738;9.126;2024-01-06T10:07:09;7.20;99.90
666;DHT22;315;48.738;9.126;2024-01-06T10:09:37;7.20;99.90
666;DHT22;315;48.738;9.126;2024-01-06T10:12:03;7.10;99.90
666;DHT22;315;48.738;9.126;2024-01-06T10:14:29;7.20;99.90
666;DHT22;315;48.738;9.126;2024-01-06T10:16:54;7.30;99.90
666;DHT22;315;48.738;9.126;2024-01-06T10:19:20;7.20;99.90
666;DHT22;315;48.738;9.126;2024-01-06T10:21:46;7.30;99.90
666;DHT22;315;48.738;9.126;2024-01-06T10:24:12;7.40;99.90
666;DHT22;315;48.738;9.126;2024-01-06T10:26:37;7.40;99.90
666;DHT22;315;48.738;9.126;2024-01-06T10:29:04;7.30;99.90
666;DHT22;315;48.738;9.126;2024-01-06T10:31:30;7.30;99.90
666;DHT22;315;48.738;9.126;2024-01-06T10:33:56;7.30;99.90
666;DHT22;315;48.738;9.126;2024-01-06T10:36:25;7.20;99.90
666;DHT22;315;48.738;9.126;2024-01-06T10:38:52;7.10;99.90
666;DHT22;315;48.738;9.126;2024-01-06T10:41:19;7.10;99.90
666;DHT22;315;48.738;9.126;2024-01-06T10:43:46;7.00;99.90
666;DHT22;315;48.738;9.126;2024-01-06T10:46:13;7.00;99.90
666;DHT22;315;48.738;9.126;2024-01-06T10:48:42;7.10;99.90
666;DHT22;315;48.738;9.126;2024-01-06T10:51:12;7.10;99.90
666;DHT22;315;48.738;9.126;2024-01-06T10:53:40;7.10;99.90
666;DHT22;315;48.738;9.126;2024-01-06T10:56:07;7.10;99.90
666;DHT22;315;48.738;9.126;2024-01-06T10:58:34;7.00;99.90
666;DHT22;315;48.738;9.126;2024-01-06T11:01:03;7.00;99.90
666;DHT22;315;48.738;9.126;2024-01-06T11:03:29;7.00;99.90
666;DHT22;315;48.738;9.126;2024-01-06T11:05:56;7.00;99.90
666;DHT22;315;48.738;9.126;2024-01-06T11:08:22;7.00;99.90
666;DHT22;315;48.738;9.126;2024-01-06T11:10:50;7.00;99.90
666;DHT22;315;48.738;9.126;2024-01-06T11:13:21;7.00;99.90
666;DHT22;315;48.738;9.126;2024-01-06T11:15:49;7.00;99.90
666;DHT22;315;48.738;9.126;2024-01-06T11:18:34;7.10;99.90
666;DHT22;315;48.738;9.126;2024-01-06T11:21:23;7.10;99.90
666;DHT22;315;48.738;9.126;2024-01-06T11:24:14;7.20;99.90
666;DHT22;315;48.738;9.126;2024-01-06T11:26:44;7.30;99.90
666;DHT22;315;48.738;9.126;2024-01-06T11:29:10;7.30;99.90
666;DHT22;315;48.738;9.126;2024-01-06T11:31:37;7.50;99.90
666;DHT22;315;48.738;9.126;2024-01-06T11:34:14;7.50;99.90
666;DHT22;315;48.738;9.126;2024-01-06T11:36:40;7.60;99.90
666;DHT22;315;48.738;9.126;2024-01-06T11:39:06;7.60;99.90
666;DHT22;315;48.738;9.126;2024-01-06T11:41:50;7.70;99.90
666;DHT22;315;48.738;9.126;2024-01-06T11:44:22;7.70;99.90
666;DHT22;315;48.738;9.126;2024-01-06T11:46:48;7.70;99.90
666;DHT22;315;48.738;9.126;2024-01-06T11:49:20;7.70;99.90
666;DHT22;315;48.738;9.126;2024-01-06T11:51:46;7.80;99.90
666;DHT22;315;48.738;9.126;2024-01-06T11:54:11;7.70;99.90
666;DHT22;315;48.738;9.126;2024-01-06T11:56:38;7.60;99.90
666;DHT22;315;48.738;9.126;2024-01-06T11:59:03;7.70;99.90
666;DHT22;315;48.738;9.126;2024-01-06T12:01:39;7.60;99.90
666;DHT22;315;48.738;9.126;2024-01-06T12:04:05;7.40;99.90
666;DHT22;315;48.738;9.126;2024-01-06T12:06:31;7.30;99.90
666;DHT22;315;48.738;9.126;2024-01-06T12:11:31;7.40;99.90
666;DHT22;315;48.738;9.126;2024-01-06T12:13:56;7.50;99.90
666;DHT22;315;48.738;9.126;2024-01-06T12:16:22;7.40;99.90
666;DHT22;315;48.738;9.126;2024-01-06T12:18:55;7.40;99.90
666;DHT22;315;48.738;9.126;2024-01-06T12:21:23;7.30;99.90
666;DHT22;315;48.738;9.126;2024-01-06T12:23:48;7.40;99.90
666;DHT22;315;48.738;9.126;2024-01-06T12:26:14;7.40;99.90
666;DHT22;315;48.738;9.126;2024-01-06T12:28:39;7.50;99.90
666;DHT22;315;48.738;9.126;2024-01-06T12:31:09;7.60;99.90
666;DHT22;315;48.738;9.126;2024-01-06T12:33:35;7.70;99.90
666;DHT22;315;48.738;9.126;2024-01-06T12:36:03;7.50;99.90
666;DHT22;315;48.738;9.126;2024-01-06T12:38:29;7.40;99.90
666;DHT22;315;48.738;9.126;2024-01-06T12:40:55;7.40;99.90
666;DHT22;315;48.738;9.126;2024-01-06T12:43:21;7.30;99.90
666;DHT22;315;48.738;9.126;2024-01-06T12:45:47;7.40;99.90
666;DHT22;315;48.738;9.126;2024-01-06T12:48:12;7.40;99.90
666;DHT22;315;48.738;9.126;2024-01-06T12:50:38;7.30;99.90
666;DHT22;315;48.738;9.126;2024-01-06T12:53:04;7.30;99.90
666;DHT22;315;48.738;9.126;2024-01-06T12:55:29;7.30;99.90
666;DHT22;315;48.738;9.126;2024-01-06T12:57:55;7.30;99.90
666;DHT22;315;48.738;9.126;2024-01-06T13:00:21;7.30;99.90
666;DHT22;315;48.738;9.126;2024-01-06T13:02:46;7.20;99.90
666;DHT22;315;48.738;9.126;2024-01-06T13:05:12;7.00;99.90
666;DHT22;315;48.738;9.126;2024-01-06T13:07:39;7.00;99.90
666;DHT22;315;48.738;9.126;2024-01-06T13:10:05;7.00;99.90
666;DHT22;315;48.738;9.126;2024-01-06T13:12:30;6.90;99.90
666;DHT22;315;48.738;9.126;2024-01-06T13:14:56;7.00;99.90
666;DHT22;315;48.738;9.126;2024-01-06T13:17:21;7.00;99.90
666;DHT22;315;48.738;9.126;2024-01-06T13:19:47;7.00;99.90
666;DHT22;315;48.738;9.126;2024-01-06T13:22:12;6.90;99.90
666;DHT22;315;48.738;9.126;2024-01-06T13:24:40;7.00;99.90
666;DHT22;315;48.738;9.126;2024-01-06T13:27:06;7.00;99.90
666;DHT22;315;48.738;9.126;2024-01-06T13:29:31;7.00;99.90
666;DHT22;315;48.738;9.126;2024-01-06T13:31:57;6.90;99.90
666;DHT22;315;48.738;9.126;2024-01-06T13:34:24;6.80;99.90
666;DHT22;315;48.738;9.126;2024-01-06T13:36:50;6.90;99.90
666;DHT22;315;48.738;9.126;2024-01-06T13:39:15;6.80;99.90
666;DHT22;315;48.738;9.126;2024-01-06T13:41:49;6.80;99.90
666;DHT22;315;48.738;9.126;2024-01-06T13:44:15;6.70;99.90
666;DHT22;315;48.738;9.126;2024-01-06T13:46:41;6.70;99.90
666;DHT22;315;48.738;9.126;2024-01-06T13:49:13;6.70;99.90
666;DHT22;315;48.738;9.126;2024-01-06T13:51:39;6.70;99.90
666;DHT22;315;48.738;9.126;2024-01-06T13:54:05;6.70;99.90
666;DHT22;315;48.738;9.126;2024-01-06T13:56:31;6.70;99.90
666;DHT22;315;48.738;9.126;2024-01-06T13:58:56;6.70;99.90
666;DHT22;315;48.738;9.126;2024-01-06T14:01:23;6.70;99.90
666;DHT22;315;48.738;9.126;2024-01-06T14:03:49;6.70;99.90
666;DHT22;315;48.738;9.126;2024-01-06T14:06:15;6.60;99.90
666;DHT22;315;48.738;9.126;2024-01-06T14:08:43;6.50;99.90
666;DHT22;315;48.738;9.126;2024-01-06T14:11:09;6.50;99.90
666;DHT22;315;48.738;9.126;2024-01-06T14:13:34;6.50;99.90
666;DHT22;315;48.738;9.126;2024-01-06T14:16:00;6.60;99.90
666;DHT22;315;48.738;9.126;2024-01-06T14:18:25;6.70;99.90
666;DHT22;315;48.738;9.126;2024-01-06T14:20:53;6.60;99.90
666;DHT22;315;48.738;9.126;2024-01-06T14:23:21;6.60;99.90
666;DHT22;315;48.738;9.126;2024-01-06T14:25:46;6.50;99.90
666;DHT22;315;48.738;9.126;2024-01-06T14:28:12;6.40;99.90
666;DHT22;315;48.738;9.126;2024-01-06T14:30:38;6.40;99.90
666;DHT22;315;48.738;9.126;2024-01-06T14:33:03;6.50;99.90
666;DHT22;315;48.738;9.126;2024-01-06T14:35:29;6.50;99.90
666;DHT22;315;48.738;9.126;2024-01-06T14:37:54;6.50;99.90
666;DHT22;315;48.738;9.126;2024-01-06T14:40:20;6.40;99.90
666;DHT22;315;48.738;9.126;2024-01-06T14:42:45;6.40;99.90
666;DHT22;315;48.738;9.126;2024-01-06T14:45:11;6.40;99.90
666;DHT22;315;48.738;9.126;2024-01-06T14:47:37;6.40;99.90
666;DHT22;315;48.738;9.126;2024-01-06T14:50:02;6.40;99.90
666;DHT22;315;48.738;9.126;2024-01-06T14:52:28;6.40;99.90
666;DHT22;315;48.738;9.126;2024-01-06T14:54:54;6.50;99.90
666;DHT22;315;48.738;9.126;2024-01-06T14:57:19;6.50;99.90
666;DHT22;315;48.738;9.126;2024-01-06T14:59:45;6.50;99.90
666;DHT22;315;48.738;9.126;2024-01-06T15:02:10;6.50;99.90
666;DHT22;315;48.738;9.126;2024-01-06T15:04:39;6.50;99.90
666;DHT22;315;48.738;9.126;2024-01-06T15:07:04;6.50;99.90
666;DHT22;315;48.738;9.126;2024-01-06T15:09:30;6.50;99.90
666;DHT22;315;48.738;9.126;2024-01-06T15:11:55;6.40;99.90
666;DHT22;315;48.738;9.126;2024-01-06T15:14:21;6.40;99.90
666;DHT22;315;48.738;9.126;2024-01-06T15:16:46;6.40;99.90
666;DHT22;315;48.738;9.126;2024-01-06T15:19:12;6.30;99.90
666;DHT22;315;48.738;9.126;2024-01-06T15:21:39;6.30;99.90
666;DHT22;315;48.738;9.126;2024-01-06T15:24:05;6.30;99.90
666;DHT22;315;48.738;9.126;2024-01-06T15:26:30;6.30;99.90
666;DHT22;315;48.738;9.126;2024-01-06T15:28:56;6.30;99.90
666;DHT22;315;48.738;9.126;2024-01-06T15:31:23;6.40;99.90
666;DHT22;315;48.738;9.126;2024-01-06T15:33:49;6.40;99.90
666;DHT22;315;48.738;9.126;2024-01-06T15:36:15;6.40;99.90
666;DHT22;315;48.738;9.126;2024-01-06T15:38:41;6.30;99.90
666;DHT22;315;48.738;9.126;2024-01-06T15:41:06;6.30;99.90
666;DHT22;315;48.738;9.126;2024-01-06T15:43:32;6.30;99.90
666;DHT22;315;48.738;9.126;2024-01-06T15:45:58;6.30;99.90
666;DHT22;315;48.738;9.126;2024-01-06T15:48:23;6.30;99.90
666;DHT22;315;48.738;9.126;2024-01-06T15:50:49;6.30;99.90
666;DHT22;315;48.738;9.126;2024-01-06T15:53:14;6.30;99.90
666;DHT22;315;48.738;9.126;2024-01-06T15:55:42;6.30;99.90
666;DHT22;315;48.738;9.126;2024-01-06T15:58:07;6.30;99.90
666;DHT22;315;48.738;9.126;2024-01-06T16:00:33;6.30;99.90
666;DHT22;315;48.738;9.126;2024-01-06T16:03:02;6.30;99.90
666;DHT22;315;48.738;9.126;2024-01-06T16:05:28;6.30;99.90
666;DHT22;315;48.738;9.126;2024-01-06T16:07:53;6.20;99.90
666;DHT22;315;48.738;9.126;2024-01-06T16:10:22;6.20;99.90
666;DHT22;315;48.738;9.126;2024-01-06T16:12:48;6.20;99.90
666;DHT22;315;48.738;9.126;2024-01-06T16:15:14;6.20;99.90
666;DHT22;315;48.738;9.126;2024-01-06T16:17:39;6.10;99.90
666;DHT22;315;48.738;9.126;2024-01-06T16:20:06;6.10;99.90
666;DHT22;315;48.738;9.126;2024-01-06T16:22:32;6.00;99.90
666;DHT22;315;48.738;9.126;2024-01-06T16:24:57;5.90;99.90
666;DHT22;315;48.738;9.126;2024-01-06T16:27:23;5.90;99.90
666;DHT22;315;48.738;9.126;2024-01-06T16:29:49;6.00;99.90
666;DHT22;315;48.738;9.126;2024-01-06T16:32:14;6.00;99.90
666;DHT22;315;48.738;9.126;2024-01-06T16:34:40;6.00;99.90
666;DHT22;315;48.738;9.126;2024-01-06T16:37:07;6.00;99.90
666;DHT22;315;48.738;9.126;2024-01-06T16:39:32;6.00;99.90
666;DHT22;315;48.738;9.126;2024-01-06T16:41:58;6.10;99.90
666;DHT22;315;48.738;9.126;2024-01-06T16:44:24;6.00;99.90
666;DHT22;315;48.738;9.126;2024-01-06T16:46:50;6.00;99.90